Time;durP1;ratioP1;P1;durP2;ratioP2;P2;SDS_P1;SDS_P2;PMS_P1;PMS_P2;Temp;Humidity;BMP_temperature;BMP_pressure;BME280_temperature;BME280_humidity;BME280_pressure;Samples;Min_cycle;Max_cycle;Signal;HPM_P1;HPM_P2
2021/09/06 00:00:27;;;;;;;19.25;11.55;;;13.90;99.90;;;;;;5026769;28;20037;-81
2021/09/06 00:02:53;;;;;;;19.73;11.18;;;13.90;99.90;;;;;;5001996;28;20120;-82
2021/09/06 00:05:19;;;;;;;18.13;10.07;;;13.80;99.90;;;;;;5001820;28;20041;-81
2021/09/06 00:07:46;;;;;;;14.98;10.00;;;13.80;99.90;;;;;;5022288;28;20033;-82
2021/09/06 00:10:37;;;;;;;17.23;10.15;;;13.80;99.90;;;;;;5005144;28;20171;-82
2021/09/06 00:13:05;;;;;;;15.25;10.15;;;13.70;99.90;;;;;;5034917;28;20076;-82
2021/09/06 00:15:32;;;;;;;17.33;10.95;;;13.70;99.90;;;;;;5020414;28;20053;-81
2021/09/06 00:17:58;;;;;;;16.17;9.32;;;13.70;99.90;;;;;;5040248;28;20025;-82
2021/09/06 00:20:24;;;;;;;20.80;11.30;;;13.70;99.90;;;;;;5033303;28;20045;-82
2021/09/06 00:22:49;;;;;;;16.90;10.98;;;13.70;99.90;;;;;;5056228;28;20037;-83
2021/09/06 00:25:15;;;;;;;17.27;10.23;;;13.70;99.90;;;;;;5019597;28;20029;-82
2021/09/06 00:27:41;;;;;;;16.73;10.38;;;13.60;99.90;;;;;;5038278;28;20041;-81
2021/09/06 00:30:07;;;;;;;16.25;9.93;;;13.60;99.90;;;;;;5018844;28;20044;-83
2021/09/06 00:32:33;;;;;;;15.40;9.82;;;13.50;99.90;;;;;;5021691;28;20041;-83
2021/09/06 00:37:41;;;;;;;16.00;9.85;;;13.50;99.90;;;;;;5642830;22;20102;-83
2021/09/06 00:40:07;;;;;;;19.10;10.80;;;13.50;99.90;;;;;;5037855;28;20037;-83
2021/09/06 00:42:33;;;;;;;17.00;10.02;;;13.50;99.90;;;;;;5050707;28;20083;-82
2021/09/06 00:44:59;;;;;;;17.20;10.43;;;13.50;99.90;;;;;;4997657;28;20033;-83
2021/09/06 00:47:25;;;;;;;17.20;10.25;;;13.50;99.90;;;;;;5012416;28;20487;-82
2021/09/06 00:49:51;;;;;;;15.23;10.25;;;13.50;99.90;;;;;;4999354;28;20484;-83
2021/09/06 00:52:16;;;;;;;14.80;9.98;;;13.40;99.90;;;;;;5002411;28;20041;-82
2021/09/06 00:54:42;;;;;;;13.35;9.30;;;13.40;99.90;;;;;;5035750;28;20029;-82
2021/09/06 00:57:09;;;;;;;15.38;10.45;;;13.40;99.90;;;;;;5036428;28;20380;-82
2021/09/06 00:59:37;;;;;;;15.20;9.55;;;13.40;99.90;;;;;;5045432;28;20116;-82
2021/09/06 01:02:03;;;;;;;15.55;10.60;;;13.40;99.90;;;;;;5002678;28;20044;-82
2021/09/06 01:04:29;;;;;;;15.57;9.40;;;13.30;99.90;;;;;;5017962;28;20033;-82
2021/09/06 01:07:24;;;;;;;15.23;9.90;;;13.30;99.90;;;;;;5028553;28;20510;-82
2021/09/06 01:10:08;;;;;;;13.93;8.95;;;13.30;99.90;;;;;;5011964;28;20108;-82
2021/09/06 01:12:50;;;;;;;14.55;9.48;;;13.20;99.90;;;;;;5042680;28;20033;-83
2021/09/06 01:15:16;;;;;;;16.20;9.88;;;13.20;99.90;;;;;;5038739;28;20090;-82
2021/09/06 01:17:42;;;;;;;15.23;9.05;;;13.20;99.90;;;;;;5023579;28;20463;-82
2021/09/06 01:20:11;;;;;;;13.90;9.18;;;13.20;99.90;;;;;;5025311;28;20070;-83
2021/09/06 01:22:41;;;;;;;16.23;9.93;;;13.20;99.90;;;;;;5014234;28;20464;-82
2021/09/06 01:25:17;;;;;;;12.38;9.20;;;13.20;99.90;;;;;;4998357;28;20040;-83
2021/09/06 01:27:45;;;;;;;14.20;9.05;;;13.10;99.90;;;;;;5014504;28;20054;-83
2021/09/06 01:30:13;;;;;;;14.10;9.25;;;13.10;99.90;;;;;;5023355;28;20029;-81
2021/09/06 01:32:40;;;;;;;15.23;9.80;;;13.10;99.90;;;;;;5034844;28;20025;-82
2021/09/06 01:35:07;;;;;;;15.15;9.15;;;13.10;99.90;;;;;;5017206;28;20033;-82
2021/09/06 01:37:36;;;;;;;14.30;9.40;;;13.10;99.90;;;;;;5038530;28;20032;-82
2021/09/06 01:40:02;;;;;;;15.77;9.40;;;13.00;99.90;;;;;;5054449;28;20112;-84
2021/09/06 01:42:27;;;;;;;16.05;9.63;;;13.00;99.90;;;;;;5050768;28;20152;-84
2021/09/06 01:44:57;;;;;;;13.05;8.90;;;13.00;99.90;;;;;;5036705;28;20091;-82
2021/09/06 01:47:28;;;;;;;11.85;7.78;;;13.00;99.90;;;;;;5022730;28;20082;-84
2021/09/06 01:49:54;;;;;;;12.18;7.72;;;13.00;99.90;;;;;;5018409;28;20040;-82
2021/09/06 01:52:22;;;;;;;12.30;7.32;;;12.90;99.90;;;;;;5024146;28;20041;-84
2021/09/06 01:54:51;;;;;;;9.25;6.70;;;12.90;99.90;;;;;;5003174;28;20033;-85
2021/09/06 01:57:17;;;;;;;11.43;8.10;;;12.90;99.90;;;;;;5036135;28;20111;-84
2021/09/06 01:59:43;;;;;;;11.30;7.15;;;12.90;99.90;;;;;;5036920;28;20375;-84
2021/09/06 02:02:08;;;;;;;10.55;7.22;;;12.90;99.90;;;;;;5026187;28;20478;-84
2021/09/06 02:04:38;;;;;;;9.43;7.22;;;12.80;99.90;;;;;;5017484;28;20087;-85
2021/09/06 02:07:04;;;;;;;11.30;8.10;;;12.80;99.90;;;;;;5015942;28;20037;-84
2021/09/06 02:09:30;;;;;;;12.43;7.63;;;12.80;99.90;;;;;;5022259;28;20426;-84
2021/09/06 02:11:56;;;;;;;11.20;7.70;;;12.70;99.90;;;;;;5036979;28;20495;-84
2021/09/06 02:14:22;;;;;;;11.52;7.95;;;12.70;99.90;;;;;;5014136;28;20032;-84
2021/09/06 02:16:49;;;;;;;9.55;7.40;;;12.70;99.90;;;;;;5000672;28;20068;-84
2021/09/06 02:19:27;;;;;;;9.52;6.85;;;12.70;99.90;;;;;;5035506;28;20031;-84
2021/09/06 02:21:53;;;;;;;12.32;8.63;;;12.70;99.90;;;;;;5018501;28;20036;-84
2021/09/06 02:24:20;;;;;;;11.27;7.82;;;12.70;99.90;;;;;;5019371;28;20537;-84
2021/09/06 02:26:49;;;;;;;11.98;7.68;;;12.60;99.90;;;;;;5001188;28;20402;-84
2021/09/06 02:29:15;;;;;;;11.80;7.72;;;12.60;99.90;;;;;;5018038;28;20530;-84
2021/09/06 02:31:54;;;;;;;10.85;7.70;;;12.60;99.90;;;;;;5021152;28;20037;-84
2021/09/06 02:34:38;;;;;;;12.88;7.80;;;12.60;99.90;;;;;;5020340;28;20029;-84
2021/09/06 02:37:04;;;;;;;14.65;8.05;;;12.60;99.90;;;;;;5019008;28;20055;-85
2021/09/06 02:39:38;;;;;;;12.85;8.02;;;12.60;99.90;;;;;;5031758;28;20029;-84
2021/09/06 02:42:04;;;;;;;15.40;7.93;;;12.60;99.90;;;;;;5023831;28;20460;-84
2021/09/06 02:44:33;;;;;;;11.75;7.97;;;12.50;99.90;;;;;;5018111;28;20391;-84
2021/09/06 02:47:04;;;;;;;11.25;7.22;;;12.50;99.90;;;;;;5032329;28;20026;-85
2021/09/06 02:49:30;;;;;;;8.93;7.15;;;12.50;99.90;;;;;;5055528;28;20036;-84
2021/09/06 02:51:56;;;;;;;9.75;6.85;;;12.50;99.90;;;;;;5054932;28;20033;-84
2021/09/06 02:54:26;;;;;;;10.73;7.07;;;12.40;99.90;;;;;;5016178;28;20036;-85
2021/09/06 02:56:52;;;;;;;12.50;7.30;;;12.50;99.90;;;;;;5019402;28;20461;-85
2021/09/06 02:59:18;;;;;;;12.40;7.65;;;12.40;99.90;;;;;;5025059;28;20032;-84
2021/09/06 03:01:43;;;;;;;11.70;7.65;;;12.50;99.90;;;;;;5020399;28;20041;-84
2021/09/06 03:04:09;;;;;;;11.68;6.80;;;12.40;99.90;;;;;;5016424;28;20033;-84
2021/09/06 03:06:35;;;;;;;10.73;7.25;;;12.40;99.90;;;;;;5018646;28;20064;-84
2021/09/06 03:09:02;;;;;;;11.43;7.45;;;12.40;99.90;;;;;;5021881;28;20067;-84
2021/09/06 03:11:29;;;;;;;12.77;7.68;;;12.40;99.90;;;;;;5018297;28;20059;-84
2021/09/06 03:13:56;;;;;;;13.13;7.78;;;12.30;99.90;;;;;;5051604;28;20550;-84
2021/09/06 03:16:24;;;;;;;11.50;8.05;;;12.30;99.90;;;;;;5005060;28;20089;-85
2021/09/06 03:18:51;;;;;;;11.32;8.07;;;12.30;99.90;;;;;;5019019;28;20043;-84
2021/09/06 03:21:24;;;;;;;11.25;7.57;;;12.30;99.90;;;;;;5029196;28;20029;-84
2021/09/06 03:23:51;;;;;;;13.95;8.05;;;12.20;99.90;;;;;;4998494;28;20087;-84
2021/09/06 03:26:18;;;;;;;11.52;7.25;;;12.20;99.90;;;;;;5036209;28;20095;-84
2021/09/06 03:28:44;;;;;;;12.32;7.70;;;12.20;99.90;;;;;;5034457;28;20123;-85
2021/09/06 03:31:12;;;;;;;12.02;7.82;;;12.20;99.90;;;;;;5025960;28;20037;-85
2021/09/06 03:33:39;;;;;;;11.75;7.72;;;12.20;99.90;;;;;;5000919;28;20029;-84
2021/09/06 03:36:05;;;;;;;12.02;8.05;;;12.10;99.90;;;;;;5016201;28;20397;-85
2021/09/06 03:38:32;;;;;;;12.27;8.48;;;12.10;99.90;;;;;;4997524;28;20037;-84
2021/09/06 03:40:58;;;;;;;14.48;8.73;;;12.10;99.90;;;;;;5042163;28;20033;-84
2021/09/06 03:43:24;;;;;;;11.65;7.68;;;12.10;99.90;;;;;;5024103;28;20178;-84
2021/09/06 03:45:50;;;;;;;11.38;7.95;;;12.10;99.90;;;;;;5024540;28;20025;-84
2021/09/06 03:48:16;;;;;;;12.70;8.50;;;12.00;99.90;;;;;;5058691;28;20052;-84
2021/09/06 03:50:44;;;;;;;13.65;8.68;;;12.00;99.90;;;;;;5024939;28;20090;-84
2021/09/06 03:53:12;;;;;;;13.70;8.43;;;12.00;99.90;;;;;;5022708;28;20043;-84
2021/09/06 03:55:38;;;;;;;11.73;8.20;;;12.00;99.90;;;;;;5033547;28;20491;-83
2021/09/06 03:58:06;;;;;;;12.40;8.70;;;12.00;99.90;;;;;;5039325;28;20079;-84
2021/09/06 04:00:32;;;;;;;13.48;9.02;;;12.00;99.90;;;;;;5022686;28;20025;-84
2021/09/06 04:02:58;;;;;;;14.35;9.10;;;12.00;99.90;;;;;;5038181;28;20071;-85
2021/09/06 04:05:26;;;;;;;15.43;10.40;;;12.00;99.90;;;;;;5023487;28;20025;-85
2021/09/06 04:07:54;;;;;;;15.23;10.15;;;12.00;99.90;;;;;;5024015;28;20033;-85
2021/09/06 04:10:21;;;;;;;16.35;9.52;;;11.90;99.90;;;;;;5037803;28;20056;-84
2021/09/06 04:12:47;;;;;;;15.00;9.65;;;11.90;99.90;;;;;;5023690;28;20033;-84
2021/09/06 04:15:13;;;;;;;16.05;9.48;;;11.90;99.90;;;;;;5038189;28;20120;-84
2021/09/06 04:17:39;;;;;;;14.07;9.80;;;11.90;99.90;;;;;;5042111;28;20540;-84
2021/09/06 04:20:06;;;;;;;14.57;9.32;;;11.90;99.90;;;;;;5038164;28;20047;-84
2021/09/06 04:22:34;;;;;;;15.50;9.07;;;11.90;99.90;;;;;;4989713;28;20052;-84
2021/09/06 04:25:02;;;;;;;13.13;8.98;;;11.90;99.90;;;;;;5021256;28;20033;-84
2021/09/06 04:27:28;;;;;;;12.93;8.57;;;11.90;99.90;;;;;;4989021;28;20039;-84
2021/09/06 04:29:54;;;;;;;15.02;9.52;;;11.90;99.90;;;;;;5047847;28;20033;-84
2021/09/06 04:32:19;;;;;;;13.80;9.15;;;11.90;99.90;;;;;;5040869;28;20108;-84
2021/09/06 04:34:45;;;;;;;16.90;9.80;;;11.80;99.90;;;;;;5018456;28;20028;-84
2021/09/06 04:37:12;;;;;;;12.95;9.07;;;11.80;99.90;;;;;;5005112;28;20033;-84
2021/09/06 04:39:42;;;;;;;15.15;9.55;;;11.80;99.90;;;;;;4989973;28;20082;-84
2021/09/06 04:42:09;;;;;;;18.23;10.38;;;11.80;99.90;;;;;;5019859;28;20025;-84
2021/09/06 04:44:35;;;;;;;17.58;9.23;;;11.80;99.90;;;;;;5028259;28;20449;-84
2021/09/06 04:47:01;;;;;;;16.05;10.23;;;11.70;99.90;;;;;;5004135;28;20029;-84
2021/09/06 04:49:27;;;;;;;17.60;10.77;;;11.80;99.90;;;;;;5023284;28;20040;-84
2021/09/06 04:51:53;;;;;;;16.30;10.25;;;11.80;99.90;;;;;;5023741;28;20037;-84
2021/09/06 04:54:20;;;;;;;14.07;9.30;;;11.80;99.90;;;;;;5003857;28;20270;-84
2021/09/06 04:56:47;;;;;;;16.00;10.27;;;11.80;99.90;;;;;;5019135;28;20091;-84
2021/09/06 04:59:13;;;;;;;13.90;9.18;;;11.80;99.90;;;;;;5021768;28;20036;-85
2021/09/06 05:01:39;;;;;;;17.88;10.05;;;11.80;99.90;;;;;;5026317;28;20029;-84
2021/09/06 05:04:05;;;;;;;15.48;9.82;;;11.90;99.90;;;;;;5004649;28;20032;-84
2021/09/06 05:06:30;;;;;;;14.38;9.25;;;11.90;99.90;;;;;;5003256;28;20094;-84
2021/09/06 05:08:59;;;;;;;15.60;9.73;;;11.90;99.90;;;;;;5021078;28;20395;-84
2021/09/06 05:11:26;;;;;;;14.30;8.85;;;11.90;99.90;;;;;;5009520;28;20427;-84
2021/09/06 05:13:54;;;;;;;14.15;8.45;;;12.00;99.90;;;;;;5027658;28;20067;-84
2021/09/06 05:16:20;;;;;;;12.02;8.43;;;12.00;99.90;;;;;;5023823;28;20113;-84
2021/09/06 05:18:47;;;;;;;15.10;8.40;;;12.10;99.90;;;;;;5009031;28;20043;-84
2021/09/06 05:21:13;;;;;;;10.23;7.20;;;12.10;99.90;;;;;;5027581;28;20021;-85
2021/09/06 05:23:39;;;;;;;14.00;8.48;;;12.20;99.90;;;;;;5003228;28;20380;-85
2021/09/06 05:26:07;;;;;;;11.80;8.15;;;12.20;99.90;;;;;;5018410;28;20091;-85
2021/09/06 05:28:33;;;;;;;12.68;7.95;;;12.30;99.90;;;;;;4989424;28;20025;-84
2021/09/06 05:31:02;;;;;;;14.73;7.68;;;12.30;99.90;;;;;;5005823;28;20039;-84
2021/09/06 05:33:31;;;;;;;11.93;8.32;;;12.30;99.90;;;;;;5024500;28;20089;-84
2021/09/06 05:35:57;;;;;;;14.27;8.85;;;12.40;99.90;;;;;;5026174;28;20037;-84
2021/09/06 05:38:23;;;;;;;14.80;8.50;;;12.40;99.90;;;;;;5022498;28;20039;-85
2021/09/06 05:41:09;;;;;;;;;;;12.50;99.90;;;;;;5012376;28;20036;-85
2021/09/06 05:43:36;;;;;;;14.50;8.90;;;12.50;99.90;;;;;;5022408;28;20366;-84
2021/09/06 05:46:02;;;;;;;14.32;9.27;;;12.60;99.90;;;;;;5021435;28;20124;-85
2021/09/06 05:48:28;;;;;;;15.75;9.52;;;12.60;99.90;;;;;;5037844;28;20410;-85
2021/09/06 05:50:54;;;;;;;13.00;8.70;;;12.70;99.90;;;;;;5026167;28;20039;-85
2021/09/06 05:53:52;;;;;;;14.20;8.82;;;12.80;99.90;;;;;;5050857;28;20395;-85
2021/09/06 05:56:20;;;;;;;14.35;9.20;;;13.00;99.90;;;;;;5036294;28;20037;-85
2021/09/06 05:58:48;;;;;;;17.73;10.13;;;13.20;99.90;;;;;;5036957;28;20033;-85
2021/09/06 06:01:15;;;;;;;13.02;8.95;;;13.50;99.90;;;;;;5026338;28;20053;-83
2021/09/06 06:03:40;;;;;;;14.07;8.80;;;13.70;99.90;;;;;;5019877;28;20483;-82
2021/09/06 06:06:10;;;;;;;12.52;8.70;;;14.00;99.90;;;;;;5034233;28;20025;-82
2021/09/06 06:08:36;;;;;;;14.10;8.52;;;14.30;99.90;;;;;;5022996;28;20518;-82
2021/09/06 06:11:02;;;;;;;13.45;8.43;;;14.60;99.90;;;;;;5054247;28;20037;-82
2021/09/06 06:13:29;;;;;;;13.02;8.25;;;14.80;99.90;;;;;;5034323;28;20064;-82
2021/09/06 06:15:54;;;;;;;14.27;8.45;;;15.00;99.90;;;;;;5051829;28;20149;-82
2021/09/06 06:18:22;;;;;;;14.13;9.00;;;15.20;99.90;;;;;;5021080;28;20146;-82
2021/09/06 06:20:47;;;;;;;12.52;8.07;;;15.30;99.90;;;;;;5052317;28;20056;-83
2021/09/06 06:23:28;;;;;;;15.18;9.20;;;15.50;99.90;;;;;;5024564;28;20029;-83
2021/09/06 06:26:17;;;;;;;13.07;8.75;;;15.80;99.90;;;;;;5022287;28;20486;-84
2021/09/06 06:28:43;;;;;;;14.20;8.38;;;16.00;99.90;;;;;;5016177;28;20037;-85
2021/09/06 06:31:11;;;;;;;13.68;8.45;;;16.30;99.90;;;;;;5033628;28;20028;-84
2021/09/06 06:33:37;;;;;;;14.38;8.88;;;16.40;99.90;;;;;;5036010;28;20028;-85
2021/09/06 06:36:05;;;;;;;10.90;7.75;;;16.60;99.90;;;;;;5000958;28;20037;-85
2021/09/06 06:38:34;;;;;;;10.18;7.60;;;16.70;99.90;;;;;;5050179;28;20040;-85
2021/09/06 06:41:01;;;;;;;11.90;7.47;;;16.70;99.90;;;;;;5038218;28;20033;-84
2021/09/06 06:43:37;;;;;;;11.40;8.38;;;16.60;99.90;;;;;;5018526;28;20422;-85
2021/09/06 06:46:03;;;;;;;11.30;7.95;;;16.40;99.90;;;;;;5009042;28;20029;-85
2021/09/06 06:48:30;;;;;;;10.52;7.57;;;16.60;99.90;;;;;;4998354;28;20040;-85
2021/09/06 06:50:57;;;;;;;13.65;8.13;;;16.70;99.90;;;;;;5009304;28;20499;-83
2021/09/06 06:53:23;;;;;;;14.02;8.48;;;17.00;99.90;;;;;;5003146;28;20028;-83
2021/09/06 06:55:50;;;;;;;11.95;8.23;;;17.30;99.90;;;;;;5000700;28;20398;-83
2021/09/06 06:58:17;;;;;;;16.50;8.88;;;17.60;99.90;;;;;;5023879;28;20125;-83
2021/09/06 07:00:43;;;;;;;11.85;8.40;;;17.80;99.90;;;;;;5052462;28;20115;-83
2021/09/06 07:03:09;;;;;;;12.70;8.00;;;18.00;99.90;;;;;;5018966;28;20029;-83
2021/09/06 07:05:34;;;;;;;9.63;7.30;;;18.20;99.90;;;;;;4999100;28;20051;-84
2021/09/06 07:08:00;;;;;;;10.15;7.72;;;18.20;99.90;;;;;;5004536;28;20044;-83
2021/09/06 07:10:26;;;;;;;11.68;6.95;;;18.30;99.90;;;;;;4999686;28;20037;-83
2021/09/06 07:12:54;;;;;;;8.93;6.78;;;18.40;99.90;;;;;;5016799;28;20119;-83
2021/09/06 07:15:20;;;;;;;12.27;7.45;;;18.60;99.90;;;;;;5003506;28;20395;-83
2021/09/06 07:17:46;;;;;;;12.25;8.05;;;18.70;99.90;;;;;;5019113;28;20036;-83
2021/09/06 07:20:13;;;;;;;13.55;8.52;;;19.00;99.90;;;;;;5020674;28;20087;-83
2021/09/06 07:22:38;;;;;;;11.60;8.30;;;19.20;99.90;;;;;;5002559;28;20112;-83
2021/09/06 07:25:05;;;;;;;13.45;8.82;;;19.30;99.90;;;;;;5020587;28;20037;-83
2021/09/06 07:27:30;;;;;;;12.95;8.35;;;19.40;99.90;;;;;;5001185;28;20036;-83
2021/09/06 07:29:56;;;;;;;14.55;8.02;;;19.40;99.90;;;;;;5052889;28;20036;-83
2021/09/06 07:32:22;;;;;;;11.98;8.45;;;19.60;99.90;;;;;;5015879;28;20033;-84
2021/09/06 07:34:48;;;;;;;12.50;7.95;;;19.80;99.90;;;;;;5010391;28;20029;-83
2021/09/06 07:37:16;;;;;;;12.55;8.50;;;19.90;99.90;;;;;;5001864;28;20033;-83
2021/09/06 07:39:46;;;;;;;14.20;8.43;;;19.70;99.90;;;;;;5053601;28;20051;-83
2021/09/06 07:42:13;;;;;;;13.52;8.35;;;19.70;99.90;;;;;;5017091;28;20041;-84
2021/09/06 07:44:40;;;;;;;11.48;7.85;;;19.80;99.90;;;;;;5015625;28;20023;-83
2021/09/06 07:47:06;;;;;;;12.10;7.50;;;19.90;99.90;;;;;;5019734;28;20033;-83
2021/09/06 07:49:31;;;;;;;11.32;8.35;;;20.10;99.90;;;;;;4989927;28;20033;-83
2021/09/06 07:51:58;;;;;;;11.45;7.93;;;19.90;99.90;;;;;;5001852;28;20033;-84
2021/09/06 07:54:25;;;;;;;14.23;8.43;;;20.00;99.90;;;;;;5013003;28;20025;-84
2021/09/06 07:56:54;;;;;;;12.48;8.50;;;20.10;99.90;;;;;;5001922;28;20041;-84
2021/09/06 07:59:21;;;;;;;10.32;8.10;;;20.10;99.90;;;;;;5020265;28;20406;-84
2021/09/06 08:01:47;;;;;;;11.73;8.30;;;20.20;99.90;;;;;;5033088;28;20028;-84
2021/09/06 08:04:13;;;;;;;11.80;7.88;;;20.00;99.90;;;;;;5017816;28;20049;-84
2021/09/06 08:06:39;;;;;;;12.80;8.77;;;20.00;99.90;;;;;;5016567;28;20029;-84
2021/09/06 08:09:05;;;;;;;12.10;8.15;;;20.10;99.90;;;;;;5017355;28;20029;-84
2021/09/06 08:11:31;;;;;;;13.77;8.63;;;20.00;99.90;;;;;;5030298;28;20097;-84
2021/09/06 08:13:58;;;;;;;12.82;8.20;;;19.90;99.90;;;;;;4999668;28;20052;-84
2021/09/06 08:16:25;;;;;;;13.88;7.93;;;19.80;99.90;;;;;;5015144;28;20432;-84
2021/09/06 08:18:51;;;;;;;11.77;7.90;;;19.90;99.90;;;;;;5018917;28;20100;-84
2021/09/06 08:21:18;;;;;;;11.25;7.63;;;20.00;99.90;;;;;;5023098;28;20041;-84
2021/09/06 08:23:44;;;;;;;12.68;8.43;;;20.10;99.90;;;;;;4999473;28;20032;-84
2021/09/06 08:26:11;;;;;;;15.05;8.25;;;20.10;99.90;;;;;;5018063;28;20029;-84
2021/09/06 08:28:37;;;;;;;12.68;8.43;;;20.10;99.90;;;;;;5025676;28;20032;-84
2021/09/06 08:31:04;;;;;;;12.10;8.65;;;20.00;99.90;;;;;;5005134;28;20048;-84
2021/09/06 08:33:31;;;;;;;12.63;7.75;;;20.10;99.90;;;;;;5050254;28;20111;-85
2021/09/06 08:35:59;;;;;;;12.18;8.60;;;20.20;99.90;;;;;;5000803;28;20044;-85
2021/09/06 08:38:25;;;;;;;11.18;7.47;;;20.30;99.90;;;;;;5005775;28;20029;-84
2021/09/06 08:40:56;;;;;;;11.98;7.95;;;20.40;99.90;;;;;;5023173;28;20515;-84
2021/09/06 08:43:22;;;;;;;12.82;8.32;;;20.50;99.90;;;;;;5022037;28;20035;-84
2021/09/06 08:45:48;;;;;;;12.68;8.43;;;20.50;99.90;;;;;;5037187;28;20052;-85
2021/09/06 08:48:17;;;;;;;11.90;8.10;;;20.50;99.90;;;;;;5033770;28;20038;-84
2021/09/06 08:50:43;;;;;;;11.43;8.00;;;20.50;99.90;;;;;;5033188;28;20123;-83
2021/09/06 08:53:09;;;;;;;10.88;7.75;;;20.30;99.90;;;;;;5023959;28;20067;-84
2021/09/06 08:55:41;;;;;;;13.73;8.57;;;20.30;99.90;;;;;;5033921;28;20029;-84
2021/09/06 08:58:07;;;;;;;13.43;7.85;;;20.40;99.90;;;;;;5021953;28;20033;-84
2021/09/06 09:00:33;;;;;;;11.45;7.05;;;20.50;99.90;;;;;;5005218;28;20379;-84
2021/09/06 09:03:22;;;;;;;10.25;7.45;;;20.50;99.90;;;;;;5039783;28;20028;-84
2021/09/06 09:06:04;;;;;;;15.15;8.13;;;20.60;99.90;;;;;;5007298;28;20036;-84
2021/09/06 09:09:05;;;;;;;;;;;20.50;99.90;;;;;;5048185;28;20495;-84
2021/09/06 09:12:12;;;;;;;12.13;7.97;;;20.50;99.90;;;;;;5029648;28;19912;-84
2021/09/06 09:15:01;;;;;;;10.35;7.03;;;20.60;99.90;;;;;;5015594;28;20036;-84
2021/09/06 09:17:54;;;;;;;12.40;7.47;;;20.40;99.90;;;;;;4991772;28;20064;-84
2021/09/06 09:20:45;;;;;;;10.00;7.53;;;20.50;99.90;;;;;;5042035;28;20028;-84
2021/09/06 09:23:22;;;;;;;11.25;7.90;;;20.60;99.90;;;;;;5021027;28;20046;-84
2021/09/06 09:26:02;;;;;;;10.27;7.50;;;20.60;99.90;;;;;;5021059;28;20087;-84
2021/09/06 09:28:47;;;;;;;10.82;7.28;;;20.60;99.90;;;;;;5016761;28;20119;-84
2021/09/06 09:31:50;;;;;;;9.70;6.80;;;20.70;99.90;;;;;;5033124;28;20105;-84
2021/09/06 09:34:38;;;;;;;7.95;6.10;;;20.80;99.90;;;;;;5023883;28;20430;-84
2021/09/06 09:37:11;;;;;;;11.17;7.87;;;20.90;99.90;;;;;;5023615;28;20380;-84
2021/09/06 09:39:38;;;;;;;10.77;7.25;;;21.00;99.90;;;;;;5052615;28;20083;-84
2021/09/06 09:42:09;;;;;;;10.60;7.28;;;21.00;99.90;;;;;;5021989;28;20025;-84
2021/09/06 09:44:56;;;;;;;10.65;7.47;;;21.10;99.90;;;;;;5020719;28;20634;-84
2021/09/06 09:47:54;;;;;;;12.95;8.55;;;21.20;99.90;;;;;;5035853;28;20163;-84
2021/09/06 09:50:22;;;;;;;9.30;6.22;;;21.20;99.90;;;;;;5020727;28;20044;-84
2021/09/06 09:52:50;;;;;;;10.45;6.93;;;21.20;99.90;;;;;;5053370;28;20041;-84
2021/09/06 09:55:17;;;;;;;8.98;6.50;;;21.30;99.90;;;;;;5031992;28;20060;-84
2021/09/06 09:57:43;;;;;;;9.40;6.40;;;21.30;99.90;;;;;;5017675;28;20083;-83
2021/09/06 10:00:10;;;;;;;10.75;7.55;;;21.30;99.90;;;;;;5018812;28;20043;-84
2021/09/06 10:02:39;;;;;;;10.48;6.82;;;21.30;99.90;;;;;;5041128;28;20041;-84
2021/09/06 10:05:07;;;;;;;9.15;6.53;;;21.30;99.90;;;;;;5041350;28;20063;-84
2021/09/06 10:07:45;;;;;;;10.25;7.05;;;21.40;99.90;;;;;;5021042;28;20048;-84
2021/09/06 10:10:19;;;;;;;8.48;6.75;;;21.40;99.90;;;;;;5020742;28;20559;-84
2021/09/06 10:12:48;;;;;;;12.07;7.40;;;21.50;99.90;;;;;;5000713;28;20067;-84
2021/09/06 10:15:14;;;;;;;6.72;5.43;;;21.60;99.90;;;;;;5011040;28;20029;-84
2021/09/06 10:17:51;;;;;;;10.43;6.55;;;21.60;99.90;;;;;;5028253;28;20040;-84
2021/09/06 10:20:23;;;;;;;11.45;7.53;;;21.70;99.90;;;;;;5032750;28;20044;-83
2021/09/06 10:23:03;;;;;;;9.48;6.72;;;21.50;99.90;;;;;;5014699;28;20033;-84
2021/09/06 10:25:34;;;;;;;7.53;6.35;;;21.40;99.90;;;;;;5025469;28;20522;-84
2021/09/06 10:28:04;;;;;;;7.95;5.63;;;21.50;99.90;;;;;;5019477;28;20029;-84
2021/09/06 10:30:50;;;;;;;8.23;5.93;;;21.50;99.90;;;;;;5032963;28;20207;-84
2021/09/06 10:33:32;;;;;;;8.15;6.05;;;21.70;99.90;;;;;;5039229;28;20029;-83
2021/09/06 10:36:18;;;;;;;10.25;6.65;;;21.80;99.90;;;;;;5030645;28;20037;-84
2021/09/06 10:38:49;;;;;;;8.40;6.10;;;21.80;99.90;;;;;;5013137;28;20059;-84
2021/09/06 10:41:22;;;;;;;10.45;6.28;;;21.80;99.90;;;;;;5023502;28;20025;-84
2021/09/06 10:43:51;;;;;;;8.93;5.93;;;21.90;99.90;;;;;;5031936;28;20638;-83
2021/09/06 10:46:21;;;;;;;9.27;5.95;;;22.00;99.90;;;;;;4982980;28;20120;-83
2021/09/06 10:48:50;;;;;;;8.73;6.47;;;22.10;99.90;;;;;;5038890;28;20136;-84
2021/09/06 10:51:29;;;;;;;7.72;5.65;;;22.10;99.90;;;;;;5037279;28;20029;-84
2021/09/06 10:53:59;;;;;;;9.35;5.90;;;22.20;99.90;;;;;;4999089;28;20044;-84
2021/09/06 10:56:27;;;;;;;7.38;5.43;;;22.20;99.90;;;;;;4990077;28;20079;-84
2021/09/06 10:58:54;;;;;;;10.65;6.15;;;22.30;99.90;;;;;;5036369;28;20499;-83
2021/09/06 11:01:21;;;;;;;8.35;5.97;;;22.40;99.90;;;;;;5028740;28;20024;-84
2021/09/06 11:03:50;;;;;;;9.52;6.07;;;22.50;99.90;;;;;;5032048;28;20119;-83
2021/09/06 11:06:28;;;;;;;7.90;6.05;;;22.60;99.90;;;;;;5038511;28;20032;-83
2021/09/06 11:09:00;;;;;;;9.10;6.00;;;22.60;99.90;;;;;;5038985;28;20025;-83
2021/09/06 11:11:31;;;;;;;7.22;5.47;;;22.60;99.90;;;;;;5017202;28;20122;-84
2021/09/06 11:13:58;;;;;;;7.93;5.93;;;22.60;99.90;;;;;;5031440;28;20043;-84
2021/09/06 11:16:43;;;;;;;8.05;5.50;;;22.60;99.90;;;;;;5018392;28;20025;-83
2021/09/06 11:19:13;;;;;;;7.20;5.20;;;22.60;99.90;;;;;;5030232;28;20030;-83
2021/09/06 11:21:40;;;;;;;8.70;5.93;;;22.60;99.90;;;;;;5003708;28;20032;-83
2021/09/06 11:24:07;;;;;;;8.77;5.53;;;22.60;99.90;;;;;;5003196;28;20041;-83
2021/09/06 11:26:33;;;;;;;7.20;5.70;;;22.70;99.90;;;;;;5006696;28;20043;-83
2021/09/06 11:29:00;;;;;;;7.82;4.85;;;22.80;99.90;;;;;;5016476;28;20122;-83
2021/09/06 11:31:29;;;;;;;6.95;4.72;;;22.90;99.90;;;;;;5057180;28;20024;-84
2021/09/06 11:34:00;;;;;;;5.68;4.70;;;22.90;99.00;;;;;;5017402;28;20025;-83
2021/09/06 11:36:26;;;;;;;5.30;4.53;;;23.00;99.90;;;;;;5032801;28;20029;-84
2021/09/06 11:38:52;;;;;;;5.30;4.35;;;23.00;97.30;;;;;;5008230;28;20048;-83
2021/09/06 11:41:18;;;;;;;7.20;5.10;;;23.10;99.90;;;;;;5021614;28;20029;-83
2021/09/06 11:43:44;;;;;;;6.00;4.22;;;23.10;96.70;;;;;;5016994;28;20395;-83
2021/09/06 11:46:11;;;;;;;9.10;5.32;;;23.20;94.30;;;;;;5016754;28;20029;-84
2021/09/06 11:48:41;;;;;;;4.82;3.90;;;23.20;92.50;;;;;;4999746;28;20029;-83
2021/09/06 11:51:09;;;;;;;6.03;4.47;;;23.30;96.80;;;;;;5054197;28;20539;-83
2021/09/06 11:53:34;;;;;;;6.75;5.05;;;23.40;95.80;;;;;;5036633;28;20025;-84
2021/09/06 11:56:00;;;;;;;5.47;4.25;;;23.50;94.10;;;;;;5032765;28;20159;-83
2021/09/06 11:58:27;;;;;;;6.90;4.22;;;23.60;98.80;;;;;;4985112;28;20064;-83
2021/09/06 12:01:04;;;;;;;5.45;4.05;;;23.80;94.60;;;;;;5035449;28;20429;-83
2021/09/06 12:03:30;;;;;;;6.68;5.10;;;23.80;92.00;;;;;;5036230;28;20119;-84
2021/09/06 12:06:05;;;;;;;5.22;4.30;;;23.80;91.40;;;;;;5020790;28;20037;-84
2021/09/06 12:08:32;;;;;;;6.03;4.20;;;23.90;94.60;;;;;;5021313;28;20143;-83
2021/09/06 12:11:09;;;;;;;8.43;4.35;;;23.80;92.50;;;;;;5035790;28;20118;-83
2021/09/06 12:13:36;;;;;;;7.68;4.82;;;23.90;95.80;;;;;;5022046;28;20068;-84
2021/09/06 12:16:07;;;;;;;5.18;4.20;;;24.20;91.60;;;;;;5032816;28;20472;-84
2021/09/06 12:18:38;;;;;;;6.32;4.35;;;24.10;90.60;;;;;;5033146;28;20419;-83
2021/09/06 12:21:10;;;;;;;6.88;4.97;;;24.40;94.20;;;;;;5009834;28;20033;-83
2021/09/06 12:23:38;;;;;;;5.32;4.10;;;24.50;91.20;;;;;;5054830;28;20119;-83
2021/09/06 12:26:06;;;;;;;4.45;4.05;;;24.70;91.90;;;;;;5022400;28;20025;-84
2021/09/06 12:28:32;;;;;;;4.25;3.85;;;24.90;90.80;;;;;;5042524;28;20036;-84
2021/09/06 12:31:04;;;;;;;6.25;4.28;;;25.10;89.70;;;;;;5006685;28;20037;-83
2021/09/06 12:33:31;;;;;;;5.57;4.15;;;25.00;85.70;;;;;;5036091;28;20035;-84
2021/09/06 12:36:01;;;;;;;4.95;4.07;;;24.80;82.00;;;;;;5036454;28;20033;-83
2021/09/06 12:38:27;;;;;;;5.13;3.90;;;24.60;85.00;;;;;;5021179;28;20029;-83
2021/09/06 12:40:52;;;;;;;5.53;4.35;;;24.70;91.50;;;;;;5015612;28;20033;-83
2021/09/06 12:43:18;;;;;;;5.88;3.97;;;24.70;89.40;;;;;;5019659;28;20044;-84
2021/09/06 12:45:44;;;;;;;6.18;3.88;;;24.80;92.60;;;;;;5050026;28;20116;-83
2021/09/06 12:48:10;;;;;;;7.13;4.80;;;24.80;94.00;;;;;;5019849;28;20061;-84
2021/09/06 12:50:35;;;;;;;5.85;4.20;;;24.80;93.10;;;;;;5019196;28;20060;-84